Rechercher aéroport 
image banner adimage banner adimage banner ad
image banner ad

S74 - Lost Isle

Situé à Stockton, United States

ICAO - S74, IATA -

Données fournies par Airmate  

Information générale

Coordonnées: N38°0'15" W121°27'24"
Élévation : feet MSL.
Variation magnétique : 16° East
Voir autres Aéroports à California

Données opérationnelles

Special qualification required
Heure actuelle UTC:
Heure actuelle locale:
Météo à : KSCK - Stockton Metropolitan ( 23 km )
METAR: KSCK 251455Z 33007KT 10SM CLR 19/13 A2990 RMK AO2 SLP125 T01890128 50006
TAF: KSCK 251120Z 2512/2612 32009KT P6SM SCT250
Voir NOTAMs / SUP AIP / TFR affectant cet aéroport [VIEW]
Fréquences de communication: [VIEW]

Pistes:

Identifiant RWYQFULongueur (ft)Largeur (ft)SurfaceLDA (ft)
NW4000300WATER
SE4000300WATER

Coordonnées de l'aéroport

Adresse: Stockton United States

Vue satellite de S74